Time;durP1;ratioP1;P1;durP2;ratioP2;P2;SDS_P1;SDS_P2;PMS_P1;PMS_P2;Temp;Humidity;BMP_temperature;BMP_pressure;BME280_temperature;BME280_humidity;BME280_pressure;Samples;Min_cycle;Max_cycle;Signal;HPM_P1;HPM_P2
2024/04/08 00:00:11;;;;;;;;;;;;;;;;;;5372008;26;89713;-74
2024/04/08 00:02:36;;;;;;;;;;;;;;;;;;5368044;26;87235;-74
2024/04/08 00:05:02;;;;;;;;;;;;;;;;;;5382956;26;87580;-74
2024/04/08 00:07:27;;;;;;;;;;;;;;;;;;5371928;26;87157;-75
2024/04/08 00:09:52;;;;;;;;;;;;;;;;;;5374026;26;87133;-74
2024/04/08 00:12:17;;;;;;;;;;;;;;;;;;5368299;26;87242;-73
2024/04/08 00:14:43;;;;;;;;;;;;;;;;;;5372196;26;87500;-74
2024/04/08 00:17:08;;;;;;;;;;;;;;;;;;5372075;26;87660;-73
2024/04/08 00:19:33;;;;;;;;;;;;;;;;;;5369370;26;87358;-74
2024/04/08 00:21:58;;;;;;;;;;;;;;;;;;5372249;26;86874;-74
2024/04/08 00:24:23;;;;;;;;;;;;;;;;;;5369432;26;86871;-75
2024/04/08 00:26:49;;;;;;;;;;;;;;;;;;5426554;25;88806;-74
2024/04/08 00:29:14;;;;;;;;;;;;;;;;;;5373737;26;87272;-75
2024/04/08 00:31:39;;;;;;;;;;;;;;;;;;5369477;26;88798;-75
2024/04/08 00:34:04;;;;;;;;;;;;;;;;;;5371097;26;87006;-75
2024/04/08 00:36:29;;;;;;;;;;;;;;;;;;5385416;26;87143;-76
2024/04/08 00:38:55;;;;;;;;;;;;;;;;;;5366849;26;87325;-75
2024/04/08 00:41:20;;;;;;;;;;;;;;;;;;5370092;26;86822;-75
2024/04/08 00:43:45;;;;;;;;;;;;;;;;;;5369102;26;87676;-75
2024/04/08 00:46:21;;;;;;;;;;;;;;;;;;5366696;26;88723;-73
2024/04/08 00:48:47;;;;;;;;;;;;;;;;;;5376031;26;87339;-74
2024/04/08 00:51:13;;;;;;;;;;;;;;;;;;5363729;26;87638;-74
2024/04/08 00:53:38;;;;;;;;;;;;;;;;;;5367622;26;87380;-75
2024/04/08 00:56:04;;;;;;;;;;;;;;;;;;5369549;26;87850;-75
2024/04/08 00:58:31;;;;;;;;;;;;;;;;;;5358116;26;90434;-74
2024/04/08 01:00:56;;;;;;;;;;;;;;;;;;5357376;26;87279;-75
2024/04/08 01:03:22;;;;;;;;;;;;;;;;;;5345970;26;88817;-75
2024/04/08 01:05:50;;;;;;;;;;;;;;;;;;5354869;26;87045;-75
2024/04/08 01:08:15;;;;;;;;;;;;;;;;;;5364178;26;87292;-74
2024/04/08 01:10:41;;;;;;;;;;;;;;;;;;5355118;26;87887;-74
2024/04/08 01:13:06;;;;;;;;;;;;;;;;;;5355420;26;88592;-74
2024/04/08 01:15:31;;;;;;;;;;;;;;;;;;5358741;26;90778;-75
2024/04/08 01:17:56;;;;;;;;;;;;;;;;;;5346450;26;88098;-75
2024/04/08 01:20:22;;;;;;;;;;;;;;;;;;5355819;26;87445;-74
2024/04/08 01:22:48;;;;;;;;;;;;;;;;;;5364202;26;89950;-73
2024/04/08 01:25:13;;;;;;;;;;;;;;;;;;5353702;26;86980;-75
2024/04/08 01:27:38;;;;;;;;;;;;;;;;;;5352200;26;87201;-75
2024/04/08 01:30:03;;;;;;;;;;;;;;;;;;5357969;26;87658;-75
2024/04/08 01:32:29;;;;;;;;;;;;;;;;;;5364871;26;87622;-75
2024/04/08 01:34:54;;;;;;;;;;;;;;;;;;5357786;26;88199;-75
2024/04/08 01:37:19;;;;;;;;;;;;;;;;;;5357138;26;87251;-75
2024/04/08 01:39:44;;;;;;;;;;;;;;;;;;5353671;26;87803;-75
2024/04/08 01:42:09;;;;;;;;;;;;;;;;;;5365690;26;87680;-75
2024/04/08 01:44:35;;;;;;;;;;;;;;;;;;5349480;26;90127;-76
2024/04/08 01:47:00;;;;;;;;;;;;;;;;;;5412656;25;87376;-75
2024/04/08 01:49:27;;;;;;;;;;;;;;;;;;5346202;26;90677;-75
2024/04/08 01:51:53;;;;;;;;;;;;;;;;;;5351273;26;87056;-75
2024/04/08 01:54:18;;;;;;;;;;;;;;;;;;5361433;26;87216;-75
2024/04/08 01:56:43;;;;;;;;;;;;;;;;;;5413343;25;87382;-75
2024/04/08 01:59:09;;;;;;;;;;;;;;;;;;5346173;26;86862;-74
2024/04/08 02:01:34;;;;;;;;;;;;;;;;;;5354854;26;88581;-75
2024/04/08 02:03:59;;;;;;;;;;;;;;;;;;5354116;26;88442;-76
2024/04/08 02:06:24;;;;;;;;;;;;;;;;;;5353117;26;87416;-75
2024/04/08 02:08:49;;;;;;;;;;;;;;;;;;5366833;26;88665;-74
2024/04/08 02:11:15;;;;;;;;;;;;;;;;;;5343220;26;88082;-75
2024/04/08 02:13:41;;;;;;;;;;;;;;;;;;5353537;26;86803;-75
2024/04/08 02:16:07;;;;;;;;;;;;;;;;;;5358109;26;87452;-74
2024/04/08 02:18:33;;;;;;;;;;;;;;;;;;5352028;26;87371;-74
2024/04/08 02:20:58;;;;;;;;;;;;;;;;;;5351559;26;90335;-75
2024/04/08 02:23:23;;;;;;;;;;;;;;;;;;5350004;26;89733;-75
2024/04/08 02:25:49;;;;;;;;;;;;;;;;;;5354627;26;87477;-74
2024/04/08 02:28:14;;;;;;;;;;;;;;;;;;5356692;26;87575;-75
2024/04/08 02:30:39;;;;;;;;;;;;;;;;;;5355200;26;87520;-75
2024/04/08 02:33:05;;;;;;;;;;;;;;;;;;5358467;26;86733;-75
2024/04/08 02:35:35;;;;;;;;;;;;;;;;;;5355902;26;90952;-75
2024/04/08 02:38:01;;;;;;;;;;;;;;;;;;5361502;26;87205;-75
2024/04/08 02:40:26;;;;;;;;;;;;;;;;;;5342587;26;88271;-75
2024/04/08 02:42:52;;;;;;;;;;;;;;;;;;5350149;26;88710;-75
2024/04/08 02:45:17;;;;;;;;;;;;;;;;;;5356571;26;87600;-75
2024/04/08 02:47:42;;;;;;;;;;;;;;;;;;5357446;26;90411;-74
2024/04/08 02:50:07;;;;;;;;;;;;;;;;;;5363947;26;87285;-75
2024/04/08 02:52:32;;;;;;;;;;;;;;;;;;5361234;26;87221;-75
2024/04/08 02:54:58;;;;;;;;;;;;;;;;;;5347364;26;87981;-74
2024/04/08 02:57:23;;;;;;;;;;;;;;;;;;5354845;26;87002;-75
2024/04/08 02:59:49;;;;;;;;;;;;;;;;;;5349813;26;87063;-75
2024/04/08 03:02:14;;;;;;;;;;;;;;;;;;5356807;26;88524;-75
2024/04/08 03:04:39;;;;;;;;;;;;;;;;;;5357347;26;87622;-75
2024/04/08 03:07:04;;;;;;;;;;;;;;;;;;5367589;26;88540;-75
2024/04/08 03:09:29;;;;;;;;;;;;;;;;;;5348862;26;90047;-75
2024/04/08 03:11:54;;;;;;;;;;;;;;;;;;5356056;26;87473;-75
2024/04/08 03:14:20;;;;;;;;;;;;;;;;;;5355548;26;88234;-75
2024/04/08 03:16:45;;;;;;;;;;;;;;;;;;5341895;26;87352;-74
2024/04/08 03:19:10;;;;;;;;;;;;;;;;;;5352340;26;87326;-75
2024/04/08 03:21:35;;;;;;;;;;;;;;;;;;5347258;26;88508;-74
2024/04/08 03:24:02;;;;;;;;;;;;;;;;;;5346585;26;87550;-74
2024/04/08 03:26:27;;;;;;;;;;;;;;;;;;5351909;26;92017;-74
2024/04/08 03:28:52;;;;;;;;;;;;;;;;;;5351277;26;87505;-74
2024/04/08 03:31:18;;;;;;;;;;;;;;;;;;5354467;26;86847;-74
2024/04/08 03:33:43;;;;;;;;;;;;;;;;;;5352726;26;88203;-75
2024/04/08 03:36:09;;;;;;;;;;;;;;;;;;5353604;26;87043;-75
2024/04/08 03:38:34;;;;;;;;;;;;;;;;;;5371498;26;86823;-75
2024/04/08 03:41:00;;;;;;;;;;;;;;;;;;5357752;26;88010;-75
2024/04/08 03:43:25;;;;;;;;;;;;;;;;;;5357796;26;87943;-75
2024/04/08 03:45:51;;;;;;;;;;;;;;;;;;5353051;26;87633;-75
2024/04/08 03:48:16;;;;;;;;;;;;;;;;;;5351899;26;88293;-74
2024/04/08 03:50:41;;;;;;;;;;;;;;;;;;5428142;25;87473;-74
2024/04/08 03:53:06;;;;;;;;;;;;;;;;;;5349854;26;90978;-75
2024/04/08 03:55:31;;;;;;;;;;;;;;;;;;5349511;26;87767;-75
2024/04/08 03:57:57;;;;;;;;;;;;;;;;;;5357427;26;87441;-75
2024/04/08 04:00:22;;;;;;;;;;;;;;;;;;5345462;26;86871;-75
2024/04/08 04:02:47;;;;;;;;;;;;;;;;;;5353943;26;89654;-75
2024/04/08 04:05:12;;;;;;;;;;;;;;;;;;5342814;26;90984;-75
2024/04/08 04:07:38;;;;;;;;;;;;;;;;;;5355368;26;87563;-75
2024/04/08 04:10:08;;;;;;;;;;;;;;;;;;5407759;25;87957;-74
2024/04/08 04:12:34;;;;;;;;;;;;;;;;;;5350498;26;88826;-74
2024/04/08 04:15:03;;;;;;;;;;;;;;;;;;5354099;26;89396;-74
2024/04/08 04:17:28;;;;;;;;;;;;;;;;;;5358190;26;87627;-75
2024/04/08 04:19:53;;;;;;;;;;;;;;;;;;5353919;26;87471;-74
2024/04/08 04:22:18;;;;;;;;;;;;;;;;;;5353033;26;87225;-75
2024/04/08 04:24:43;;;;;;;;;;;;;;;;;;5353258;26;87438;-74
2024/04/08 04:27:08;;;;;;;;;;;;;;;;;;5354607;26;87205;-73
2024/04/08 04:29:35;;;;;;;;;;;;;;;;;;5349251;26;87300;-74
2024/04/08 04:32:00;;;;;;;;;;;;;;;;;;5316815;26;87611;-74
2024/04/08 04:34:25;;;;;;;;;;;;;;;;;;5352588;26;87336;-74
2024/04/08 04:36:50;;;;;;;;;;;;;;;;;;5358625;26;87257;-73
2024/04/08 04:39:15;;;;;;;;;;;;;;;;;;5361188;26;90470;-75
2024/04/08 04:41:41;;;;;;;;;;;;;;;;;;5359027;26;89091;-74
2024/04/08 04:44:06;;;;;;;;;;;;;;;;;;5353302;26;86827;-75
2024/04/08 04:46:31;;;;;;;;;;;;;;;;;;5356356;26;89956;-75
2024/04/08 04:48:56;;;;;;;;;;;;;;;;;;5349577;26;87278;-76
2024/04/08 04:51:21;;;;;;;;;;;;;;;;;;5345139;26;89301;-74
2024/04/08 04:53:47;;;;;;;;;;;;;;;;;;5356570;26;89661;-75
2024/04/08 04:56:12;;;;;;;;;;;;;;;;;;5347676;26;87009;-75
2024/04/08 04:58:37;;;;;;;;;;;;;;;;;;5358804;26;87579;-75
2024/04/08 05:01:04;;;;;;;;;;;;;;;;;;5352789;26;87315;-75
2024/04/08 05:03:29;;;;;;;;;;;;;;;;;;5342752;26;87076;-75
2024/04/08 05:05:55;;;;;;;;;;;;;;;;;;5361250;26;87465;-75
2024/04/08 05:08:20;;;;;;;;;;;;;;;;;;5353011;26;87322;-75
2024/04/08 05:10:45;;;;;;;;;;;;;;;;;;5352998;26;87176;-74
2024/04/08 05:13:10;;;;;;;;;;;;;;;;;;5362521;26;87484;-76
2024/04/08 05:15:36;;;;;;;;;;;;;;;;;;5357136;26;87016;-75
2024/04/08 05:18:01;;;;;;;;;;;;;;;;;;5345732;26;88323;-76
2024/04/08 05:20:29;;;;;;;;;;;;;;;;;;5362110;26;90490;-73
2024/04/08 05:22:55;;;;;;;;;;;;;;;;;;5356187;26;87322;-73
2024/04/08 05:25:20;;;;;;;;;;;;;;;;;;5355194;26;87489;-75
2024/04/08 05:27:45;;;;;;;;;;;;;;;;;;5353469;26;87437;-74
2024/04/08 05:30:11;;;;;;;;;;;;;;;;;;5361051;26;87550;-74
2024/04/08 05:32:36;;;;;;;;;;;;;;;;;;5346996;26;87467;-73
2024/04/08 05:35:02;;;;;;;;;;;;;;;;;;5361723;26;87169;-74
2024/04/08 05:37:27;;;;;;;;;;;;;;;;;;5351305;26;90855;-74
2024/04/08 05:39:52;;;;;;;;;;;;;;;;;;5347704;26;87142;-74
2024/04/08 05:42:17;;;;;;;;;;;;;;;;;;5334097;26;87870;-74
2024/04/08 05:44:42;;;;;;;;;;;;;;;;;;5342863;26;88693;-74
2024/04/08 05:47:08;;;;;;;;;;;;;;;;;;5340884;26;88785;-75
2024/04/08 05:49:33;;;;;;;;;;;;;;;;;;5350820;26;87177;-75
2024/04/08 05:51:58;;;;;;;;;;;;;;;;;;5361720;26;87521;-74
2024/04/08 05:54:23;;;;;;;;;;;;;;;;;;5354053;26;87640;-74
2024/04/08 05:56:49;;;;;;;;;;;;;;;;;;5353950;26;88366;-75
2024/04/08 05:59:14;;;;;;;;;;;;;;;;;;5353916;26;88712;-75
2024/04/08 06:01:40;;;;;;;;;;;;;;;;;;5352812;26;87087;-74
2024/04/08 06:04:05;;;;;;;;;;;;;;;;;;5351665;26;87503;-75
2024/04/08 06:06:30;;;;;;;;;;;;;;;;;;5351095;26;87916;-74
2024/04/08 06:09:04;;;;;;;;;;;;;;;;;;5352458;26;87298;-74
2024/04/08 06:11:30;;;;;;;;;;;;;;;;;;5357203;26;87861;-75
2024/04/08 06:13:55;;;;;;;;;;;;;;;;;;5350136;26;87890;-74
2024/04/08 06:16:20;;;;;;;;;;;;;;;;;;5350237;26;87440;-74
2024/04/08 06:18:46;;;;;;;;;;;;;;;;;;5353933;26;87248;-75
2024/04/08 06:21:11;;;;;;;;;;;;;;;;;;5352173;26;87354;-75
2024/04/08 06:23:36;;;;;;;;;;;;;;;;;;5353129;26;87836;-74
2024/04/08 06:26:05;;;;;;;;;;;;;;;;;;5344206;26;89653;-75
2024/04/08 06:28:30;;;;;;;;;;;;;;;;;;5352352;26;88169;-74
2024/04/08 06:30:56;;;;;;;;;;;;;;;;;;5345983;26;90293;-74
2024/04/08 06:33:21;;;;;;;;;;;;;;;;;;5357013;26;87048;-74
2024/04/08 06:35:47;;;;;;;;;;;;;;;;;;5335943;26;88716;-74
2024/04/08 06:38:13;;;;;;;;;;;;;;;;;;5353688;26;87616;-74
2024/04/08 06:40:39;;;;;;;;;;;;;;;;;;5356012;26;87385;-74
2024/04/08 06:43:04;;;;;;;;;;;;;;;;;;5345865;26;89028;-73
2024/04/08 06:45:29;;;;;;;;;;;;;;;;;;5351024;26;87135;-74
2024/04/08 06:47:55;;;;;;;;;;;;;;;;;;5360908;26;87858;-75
2024/04/08 06:50:20;;;;;;;;;;;;;;;;;;5348208;26;88915;-74
2024/04/08 06:52:46;;;;;;;;;;;;;;;;;;5341824;26;87658;-74
2024/04/08 06:55:11;;;;;;;;;;;;;;;;;;5351776;26;86990;-75
2024/04/08 06:57:36;;;;;;;;;;;;;;;;;;5350272;26;87236;-74
2024/04/08 07:00:03;;;;;;;;;;;;;;;;;;5361547;26;87242;-74
2024/04/08 07:02:28;;;;;;;;;;;;;;;;;;5348813;26;88278;-74
2024/04/08 07:04:53;;;;;;;;;;;;;;;;;;5353771;26;86993;-74
2024/04/08 07:07:19;;;;;;;;;;;;;;;;;;5353960;26;86945;-74
2024/04/08 07:09:44;;;;;;;;;;;;;;;;;;5418859;25;88325;-74
2024/04/08 07:12:09;;;;;;;;;;;;;;;;;;5349730;26;88620;-75
2024/04/08 07:14:34;;;;;;;;;;;;;;;;;;5353227;26;87226;-74
2024/04/08 07:16:59;;;;;;;;;;;;;;;;;;5350620;26;88451;-74
2024/04/08 07:19:25;;;;;;;;;;;;;;;;;;5358495;26;87575;-74
2024/04/08 07:21:50;;;;;;;;;;;;;;;;;;5326492;26;88057;-74
2024/04/08 07:24:15;;;;;;;;;;;;;;;;;;5320130;26;89088;-75
2024/04/08 07:26:40;;;;;;;;;;;;;;;;;;5321225;26;87908;-74
2024/04/08 07:29:06;;;;;;;;;;;;;;;;;;5319130;26;88601;-74
2024/04/08 07:31:31;;;;;;;;;;;;;;;;;;5333676;26;89651;-74
2024/04/08 07:33:56;;;;;;;;;;;;;;;;;;5331170;26;89662;-74
2024/04/08 07:36:21;;;;;;;;;;;;;;;;;;5339030;26;89700;-73
2024/04/08 07:38:47;;;;;;;;;;;;;;;;;;5337351;26;88732;-74
2024/04/08 07:41:12;;;;;;;;;;;;;;;;;;5351146;26;86914;-73
2024/04/08 07:43:39;;;;;;;;;;;;;;;;;;5349003;26;88056;-73
2024/04/08 07:46:04;;;;;;;;;;;;;;;;;;5350318;26;86866;-74
2024/04/08 07:48:30;;;;;;;;;;;;;;;;;;5350404;26;87636;-74
2024/04/08 07:50:56;;;;;;;;;;;;;;;;;;5365247;26;87226;-74
2024/04/08 07:53:21;;;;;;;;;;;;;;;;;;5354039;26;87599;-74
2024/04/08 07:55:47;;;;;;;;;;;;;;;;;;5353223;26;87262;-74
2024/04/08 07:58:12;;;;;;;;;;;;;;;;;;5347489;26;90011;-74
2024/04/08 08:00:37;;;;;;;;;;;;;;;;;;5349620;26;86906;-74
2024/04/08 08:03:02;;;;;;;;;;;;;;;;;;5344089;26;87912;-74
2024/04/08 08:05:28;;;;;;;;;;;;;;;;;;5349558;26;87339;-74
2024/04/08 08:07:53;;;;;;;;;;;;;;;;;;5354452;26;89018;-74
2024/04/08 08:10:19;;;;;;;;;;;;;;;;;;5351596;26;87429;-74
2024/04/08 08:12:44;;;;;;;;;;;;;;;;;;5351073;26;87193;-73
2024/04/08 08:15:09;;;;;;;;;;;;;;;;;;5354001;26;87738;-74
2024/04/08 08:17:35;;;;;;;;;;;;;;;;;;5355602;26;87781;-76
2024/04/08 08:20:00;;;;;;;;;;;;;;;;;;5348926;26;89373;-74
2024/04/08 08:22:26;;;;;;;;;;;;;;;;;;5354751;26;87959;-74
2024/04/08 08:24:51;;;;;;;;;;;;;;;;;;5355575;26;87586;-75
2024/04/08 08:27:16;;;;;;;;;;;;;;;;;;5355704;26;88035;-75
2024/04/08 08:29:42;;;;;;;;;;;;;;;;;;5277926;26;89758;-75
2024/04/08 08:32:07;;;;;;;;;;;;;;;;;;5240476;26;86937;-74
2024/04/08 08:34:33;;;;;;;;;;;;;;;;;;5253390;26;87534;-74
2024/04/08 08:36:58;;;;;;;;;;;;;;;;;;5257383;26;87895;-74
2024/04/08 08:39:23;;;;;;;;;;;;;;;;;;5238332;26;87549;-75
2024/04/08 08:41:52;;;;;;;;;;;;;;;;;;5243427;26;87714;-74
2024/04/08 08:44:20;;;;;;;;;;;;;;;;;;5248970;26;86983;-73
2024/04/08 08:46:46;;;;;;;;;;;;;;;;;;5275108;26;91018;-76
2024/04/08 08:49:12;;;;;;;;;;;;;;;;;;5278561;26;90062;-76
2024/04/08 08:51:37;;;;;;;;;;;;;;;;;;5270596;26;87490;-75
2024/04/08 08:54:02;;;;;;;;;;;;;;;;;;5270487;26;87735;-75
2024/04/08 08:56:29;;;;;;;;;;;;;;;;;;5271799;26;87070;-75
2024/04/08 08:58:56;;;;;;;;;;;;;;;;;;5309579;26;87086;-76
2024/04/08 09:01:22;;;;;;;;;;;;;;;;;;5281039;26;87663;-73
2024/04/08 09:03:47;;;;;;;;;;;;;;;;;;5296671;26;87480;-74
2024/04/08 09:06:14;;;;;;;;;;;;;;;;;;5277407;26;87785;-73
2024/04/08 09:08:39;;;;;;;;;;;;;;;;;;5274276;26;87879;-73
2024/04/08 09:11:05;;;;;;;;;;;;;;;;;;5283867;26;88217;-72
2024/04/08 09:13:32;;;;;;;;;;;;;;;;;;5281439;26;89364;-72
2024/04/08 09:15:57;;;;;;;;;;;;;;;;;;5279970;26;87446;-73
2024/04/08 09:18:23;;;;;;;;;;;;;;;;;;5279594;26;86859;-73
2024/04/08 09:20:48;;;;;;;;;;;;;;;;;;5278849;26;88067;-73
2024/04/08 09:23:14;;;;;;;;;;;;;;;;;;5279903;26;87308;-72
2024/04/08 09:25:39;;;;;;;;;;;;;;;;;;5285141;26;87520;-71
2024/04/08 09:28:06;;;;;;;;;;;;;;;;;;5271410;26;87403;-70
2024/04/08 09:30:31;;;;;;;;;;;;;;;;;;5272055;26;87426;-69
2024/04/08 09:32:57;;;;;;;;;;;;;;;;;;5284615;26;87633;-71
2024/04/08 09:35:22;;;;;;;;;;;;;;;;;;5287183;26;87588;-71
2024/04/08 09:37:47;;;;;;;;;;;;;;;;;;5280982;26;87150;-71
2024/04/08 09:40:14;;;;;;;;;;;;;;;;;;5281885;26;87729;-71
2024/04/08 09:42:40;;;;;;;;;;;;;;;;;;5290866;26;88292;-70
2024/04/08 09:45:05;;;;;;;;;;;;;;;;;;5284941;26;88472;-70
2024/04/08 09:47:31;;;;;;;;;;;;;;;;;;5282587;26;90525;-72
2024/04/08 09:50:00;;;;;;;;;;;;;;;;;;5286851;26;86962;-72
2024/04/08 09:52:25;;;;;;;;;;;;;;;;;;5282452;26;89174;-70
2024/04/08 09:54:51;;;;;;;;;;;;;;;;;;5274929;26;87450;-69
2024/04/08 09:57:16;;;;;;;;;;;;;;;;;;5283374;26;87497;-70
2024/04/08 09:59:42;;;;;;;;;;;;;;;;;;5265219;26;90235;-70
2024/04/08 10:02:17;;;;;;;;;;;;;;;;;;5286312;26;88569;-71
2024/04/08 10:04:43;;;;;;;;;;;;;;;;;;5273864;26;87229;-72
2024/04/08 10:07:08;;;;;;;;;;;;;;;;;;5266541;26;87565;-72
2024/04/08 10:09:34;;;;;;;;;;;;;;;;;;5278587;26;88469;-70
2024/04/08 10:12:01;;;;;;;;;;;;;;;;;;5283597;26;87824;-73
2024/04/08 10:14:28;;;;;;;;;;;;;;;;;;5292362;26;88851;-72
2024/04/08 10:16:53;;;;;;;;;;;;;;;;;;5278631;26;87480;-72
2024/04/08 10:19:21;;;;;;;;;;;;;;;;;;5283001;26;87745;-73
2024/04/08 10:21:47;;;;;;;;;;;;;;;;;;5283050;26;87090;-74
2024/04/08 10:24:31;;;;;;;;;;;;;;;;;;5283710;26;87432;-72
2024/04/08 10:27:04;;;;;;;;;;;;;;;;;;5275108;26;88838;-70
2024/04/08 10:29:31;;;;;;;;;;;;;;;;;;5285722;26;87415;-72
2024/04/08 10:31:57;;;;;;;;;;;;;;;;;;5288437;26;87805;-71
2024/04/08 10:34:23;;;;;;;;;;;;;;;;;;5281011;26;87668;-72
2024/04/08 10:36:49;;;;;;;;;;;;;;;;;;5293497;26;86972;-72
2024/04/08 10:39:16;;;;;;;;;;;;;;;;;;5279809;26;88255;-71
2024/04/08 10:41:41;;;;;;;;;;;;;;;;;;5278003;26;87741;-71
2024/04/08 10:44:08;;;;;;;;;;;;;;;;;;5278316;26;86919;-71
2024/04/08 10:46:34;;;;;;;;;;;;;;;;;;5283284;26;88076;-71
2024/04/08 10:48:59;;;;;;;;;;;;;;;;;;5278132;26;87708;-70
2024/04/08 10:51:25;;;;;;;;;;;;;;;;;;5295238;26;88487;-70
2024/04/08 10:53:51;;;;;;;;;;;;;;;;;;5279934;26;87812;-71
2024/04/08 10:56:17;;;;;;;;;;;;;;;;;;5280848;26;87178;-71
2024/04/08 10:58:42;;;;;;;;;;;;;;;;;;5283413;26;88914;-71
2024/04/08 11:01:08;;;;;;;;;;;;;;;;;;5280535;26;87138;-71
2024/04/08 11:03:34;;;;;;;;;;;;;;;;;;5283551;26;86986;-71
2024/04/08 11:05:59;;;;;;;;;;;;;;;;;;5283174;26;87734;-71
2024/04/08 11:08:24;;;;;;;;;;;;;;;;;;5274884;26;87681;-71
2024/04/08 11:10:50;;;;;;;;;;;;;;;;;;5282370;26;87059;-72
2024/04/08 11:13:15;;;;;;;;;;;;;;;;;;5283012;26;89327;-71
2024/04/08 11:15:47;;;;;;;;;;;;;;;;;;5281139;26;87928;-71
2024/04/08 11:18:12;;;;;;;;;;;;;;;;;;5274247;26;89089;-71
2024/04/08 11:20:37;;;;;;;;;;;;;;;;;;5293520;26;87275;-72
2024/04/08 11:23:03;;;;;;;;;;;;;;;;;;5280614;26;87433;-71
2024/04/08 11:25:28;;;;;;;;;;;;;;;;;;5273586;26;88519;-71
2024/04/08 11:27:54;;;;;;;;;;;;;;;;;;5269902;26;87733;-71
2024/04/08 11:30:19;;;;;;;;;;;;;;;;;;5268324;26;87092;-71
2024/04/08 11:32:44;;;;;;;;;;;;;;;;;;5275718;26;87689;-73
2024/04/08 11:35:09;;;;;;;;;;;;;;;;;;5285909;26;87253;-74
2024/04/08 11:37:35;;;;;;;;;;;;;;;;;;5292590;26;87823;-72
2024/04/08 11:40:01;;;;;;;;;;;;;;;;;;5274513;26;87873;-72
2024/04/08 11:42:26;;;;;;;;;;;;;;;;;;5280896;26;87400;-72
2024/04/08 11:44:59;;;;;;;;;;;;;;;;;;5285735;26;88472;-73
2024/04/08 11:47:24;;;;;;;;;;;;;;;;;;5267281;26;88094;-73
2024/04/08 11:49:50;;;;;;;;;;;;;;;;;;5272971;26;87515;-73
2024/04/08 11:52:15;;;;;;;;;;;;;;;;;;5274772;26;90054;-73
2024/04/08 11:54:43;;;;;;;;;;;;;;;;;;5267744;26;88368;-73
2024/04/08 11:57:08;;;;;;;;;;;;;;;;;;5286022;26;87494;-73
2024/04/08 11:59:34;;;;;;;;;;;;;;;;;;5285263;26;87465;-72
2024/04/08 12:01:59;;;;;;;;;;;;;;;;;;5288499;26;87445;-73
2024/04/08 12:04:24;;;;;;;;;;;;;;;;;;5280365;26;87921;-72
2024/04/08 12:06:50;;;;;;;;;;;;;;;;;;5278190;26;87524;-73
2024/04/08 12:09:15;;;;;;;;;;;;;;;;;;5288290;26;87633;-73
2024/04/08 12:11:40;;;;;;;;;;;;;;;;;;5282660;26;88575;-73
2024/04/08 12:14:05;;;;;;;;;;;;;;;;;;5271228;26;87757;-71
2024/04/08 12:16:31;;;;;;;;;;;;;;;;;;5279286;26;87474;-72
2024/04/08 12:18:56;;;;;;;;;;;;;;;;;;5282681;26;88230;-72
2024/04/08 12:21:21;;;;;;;;;;;;;;;;;;5279195;26;87719;-72
2024/04/08 12:23:46;;;;;;;;;;;;;;;;;;5270910;26;87718;-72
2024/04/08 12:26:13;;;;;;;;;;;;;;;;;;5295814;26;88408;-72
2024/04/08 12:28:38;;;;;;;;;;;;;;;;;;5284897;26;87285;-73
2024/04/08 12:31:04;;;;;;;;;;;;;;;;;;5284638;26;88523;-73
2024/04/08 12:33:29;;;;;;;;;;;;;;;;;;5278403;26;87549;-73
2024/04/08 12:35:54;;;;;;;;;;;;;;;;;;5296860;26;87615;-73
2024/04/08 12:38:19;;;;;;;;;;;;;;;;;;5285641;26;87872;-73
2024/04/08 12:40:45;;;;;;;;;;;;;;;;;;5283616;26;87053;-73
2024/04/08 12:43:10;;;;;;;;;;;;;;;;;;5277900;26;87402;-71
2024/04/08 12:45:36;;;;;;;;;;;;;;;;;;5280276;26;88697;-72
2024/04/08 12:48:01;;;;;;;;;;;;;;;;;;5271329;26;87802;-73
2024/04/08 12:50:26;;;;;;;;;;;;;;;;;;5263273;26;88423;-72
2024/04/08 12:52:51;;;;;;;;;;;;;;;;;;5276315;26;88977;-73
2024/04/08 12:55:17;;;;;;;;;;;;;;;;;;5278981;26;87491;-71
2024/04/08 12:57:42;;;;;;;;;;;;;;;;;;5285109;26;87276;-72
2024/04/08 13:00:10;;;;;;;;;;;;;;;;;;5288308;26;88936;-72
2024/04/08 13:02:36;;;;;;;;;;;;;;;;;;5284020;26;89056;-73
2024/04/08 13:05:02;;;;;;;;;;;;;;;;;;5282542;26;87644;-72
2024/04/08 13:07:27;;;;;;;;;;;;;;;;;;5284626;26;88202;-71
2024/04/08 13:09:53;;;;;;;;;;;;;;;;;;5275845;26;87895;-72
2024/04/08 13:12:20;;;;;;;;;;;;;;;;;;5283488;26;89121;-73
2024/04/08 13:14:45;;;;;;;;;;;;;;;;;;5282620;26;87557;-73
2024/04/08 13:17:10;;;;;;;;;;;;;;;;;;5269845;26;88602;-72
2024/04/08 13:19:36;;;;;;;;;;;;;;;;;;5283089;26;87923;-73
2024/04/08 13:22:01;;;;;;;;;;;;;;;;;;5300563;26;87892;-72
2024/04/08 13:24:27;;;;;;;;;;;;;;;;;;5270111;26;88269;-71
2024/04/08 13:26:52;;;;;;;;;;;;;;;;;;5270652;26;87025;-72
2024/04/08 13:29:18;;;;;;;;;;;;;;;;;;5270648;26;87148;-75
2024/04/08 13:31:43;;;;;;;;;;;;;;;;;;5256811;26;88164;-77
2024/04/08 13:34:08;;;;;;;;;;;;;;;;;;5265131;26;87587;-77
2024/04/08 13:36:34;;;;;;;;;;;;;;;;;;5267980;26;89270;-76
2024/04/08 13:39:00;;;;;;;;;;;;;;;;;;5276294;26;88310;-76
2024/04/08 13:41:25;;;;;;;;;;;;;;;;;;5270101;26;88340;-74
2024/04/08 13:43:50;;;;;;;;;;;;;;;;;;5271482;26;89772;-77
2024/04/08 13:46:16;;;;;;;;;;;;;;;;;;5271137;26;87639;-76
2024/04/08 13:48:41;;;;;;;;;;;;;;;;;;5281426;26;88315;-74
2024/04/08 13:51:08;;;;;;;;;;;;;;;;;;5284900;26;87913;-75
2024/04/08 13:53:33;;;;;;;;;;;;;;;;;;5263607;26;89788;-76
2024/04/08 13:56:02;;;;;;;;;;;;;;;;;;5262561;26;88764;-75
2024/04/08 13:58:27;;;;;;;;;;;;;;;;;;5260015;26;89128;-74
2024/04/08 14:00:52;;;;;;;;;;;;;;;;;;5269647;26;88160;-75
2024/04/08 14:03:18;;;;;;;;;;;;;;;;;;5272343;26;87793;-76
2024/04/08 14:05:43;;;;;;;;;;;;;;;;;;5274829;26;88491;-76
2024/04/08 14:08:08;;;;;;;;;;;;;;;;;;5270992;26;89076;-72
2024/04/08 14:10:34;;;;;;;;;;;;;;;;;;5267173;26;87249;-75
2024/04/08 14:13:00;;;;;;;;;;;;;;;;;;5269555;26;87525;-72
2024/04/08 14:15:25;;;;;;;;;;;;;;;;;;5273900;26;87675;-75
2024/04/08 14:17:51;;;;;;;;;;;;;;;;;;5274750;26;87934;-73
2024/04/08 14:20:16;;;;;;;;;;;;;;;;;;5271037;26;87742;-69
2024/04/08 14:22:41;;;;;;;;;;;;;;;;;;5275588;26;87864;-71
2024/04/08 14:25:07;;;;;;;;;;;;;;;;;;5281929;26;87731;-74
2024/04/08 14:27:32;;;;;;;;;;;;;;;;;;5276212;26;87817;-71
2024/04/08 14:29:57;;;;;;;;;;;;;;;;;;5280696;26;88090;-74
2024/04/08 14:32:22;;;;;;;;;;;;;;;;;;5277208;26;87849;-75
2024/04/08 14:34:48;;;;;;;;;;;;;;;;;;5263366;26;90450;-75
2024/04/08 14:37:13;;;;;;;;;;;;;;;;;;5275577;26;88381;-71
2024/04/08 14:39:38;;;;;;;;;;;;;;;;;;5279136;26;87917;-77
2024/04/08 14:42:04;;;;;;;;;;;;;;;;;;5269962;26;89468;-76
2024/04/08 14:44:29;;;;;;;;;;;;;;;;;;5284700;26;87737;-73
2024/04/08 14:46:54;;;;;;;;;;;;;;;;;;5279225;26;87629;-75
2024/04/08 14:49:19;;;;;;;;;;;;;;;;;;5282852;26;87556;-77
2024/04/08 14:51:45;;;;;;;;;;;;;;;;;;5283035;26;86970;-77
2024/04/08 14:54:10;;;;;;;;;;;;;;;;;;5277961;26;88325;-76
2024/04/08 14:56:35;;;;;;;;;;;;;;;;;;5286939;26;87777;-77
2024/04/08 14:59:00;;;;;;;;;;;;;;;;;;5284002;26;88194;-74
2024/04/08 15:01:26;;;;;;;;;;;;;;;;;;5264435;26;87967;-76
2024/04/08 15:03:54;;;;;;;;;;;;;;;;;;5269123;26;88290;-74
2024/04/08 15:06:20;;;;;;;;;;;;;;;;;;5292653;26;87618;-72
2024/04/08 15:08:45;;;;;;;;;;;;;;;;;;5273089;26;88541;-73
2024/04/08 15:11:10;;;;;;;;;;;;;;;;;;5264875;26;88861;-73
2024/04/08 15:13:36;;;;;;;;;;;;;;;;;;5269869;26;88107;-75
2024/04/08 15:16:01;;;;;;;;;;;;;;;;;;5280780;26;88212;-74
2024/04/08 15:18:26;;;;;;;;;;;;;;;;;;5275140;26;87316;-76
2024/04/08 15:20:52;;;;;;;;;;;;;;;;;;5277209;26;87885;-71
2024/04/08 15:23:17;;;;;;;;;;;;;;;;;;5286805;26;87075;-75
2024/04/08 15:25:43;;;;;;;;;;;;;;;;;;5284644;26;87081;-74
2024/04/08 15:28:08;;;;;;;;;;;;;;;;;;5283182;26;89029;-75
2024/04/08 15:30:34;;;;;;;;;;;;;;;;;;5286274;26;87513;-73
2024/04/08 15:32:59;;;;;;;;;;;;;;;;;;5266931;26;88484;-75
2024/04/08 15:35:24;;;;;;;;;;;;;;;;;;5278996;26;87282;-77
2024/04/08 15:37:51;;;;;;;;;;;;;;;;;;5268644;26;87590;-74
2024/04/08 15:40:16;;;;;;;;;;;;;;;;;;5272455;26;89074;-72
2024/04/08 15:42:42;;;;;;;;;;;;;;;;;;5282591;26;89040;-75
2024/04/08 15:45:08;;;;;;;;;;;;;;;;;;5279733;26;89161;-75
2024/04/08 15:47:33;;;;;;;;;;;;;;;;;;5283909;26;87955;-75
2024/04/08 15:49:58;;;;;;;;;;;;;;;;;;5274406;26;88639;-73
2024/04/08 15:52:24;;;;;;;;;;;;;;;;;;5273860;26;87440;-77
2024/04/08 15:54:49;;;;;;;;;;;;;;;;;;5281920;26;87543;-74
2024/04/08 15:57:14;;;;;;;;;;;;;;;;;;5281437;26;87456;-76
2024/04/08 15:59:40;;;;;;;;;;;;;;;;;;5267284;26;87693;-75
2024/04/08 16:02:05;;;;;;;;;;;;;;;;;;5281738;26;87720;-77
2024/04/08 16:04:31;;;;;;;;;;;;;;;;;;5276897;26;87835;-75
2024/04/08 16:06:56;;;;;;;;;;;;;;;;;;5269200;26;87706;-76
2024/04/08 16:09:22;;;;;;;;;;;;;;;;;;5266794;26;87498;-75
2024/04/08 16:11:47;;;;;;;;;;;;;;;;;;5273340;26;87511;-72
2024/04/08 16:14:12;;;;;;;;;;;;;;;;;;5272344;26;88602;-74
2024/04/08 16:16:37;;;;;;;;;;;;;;;;;;5326114;26;89414;-75
2024/04/08 16:19:03;;;;;;;;;;;;;;;;;;5269283;26;88650;-70
2024/04/08 16:21:28;;;;;;;;;;;;;;;;;;5272567;26;87451;-71
2024/04/08 16:23:53;;;;;;;;;;;;;;;;;;5269032;26;87228;-70
2024/04/08 16:26:19;;;;;;;;;;;;;;;;;;5318927;26;91785;-71
2024/04/08 16:28:44;;;;;;;;;;;;;;;;;;5262627;26;87678;-71
2024/04/08 16:31:10;;;;;;;;;;;;;;;;;;5268123;26;87285;-69
2024/04/08 16:33:35;;;;;;;;;;;;;;;;;;5278344;26;87718;-75